createdAt,value
2023-01-23T00:01:26.938Z,102082.02
2023-01-23T00:03:55.173Z,102086.05
2023-01-23T00:06:23.028Z,102085.66
2023-01-23T00:08:50.712Z,102083.16
2023-01-23T00:11:22.501Z,102088.12
2023-01-23T00:13:52.876Z,102087.59
2023-01-23T00:16:22.663Z,102087.65
2023-01-23T00:18:50.246Z,102086.96
2023-01-23T00:21:20.047Z,102081.14
2023-01-23T00:23:51.411Z,102079.46
2023-01-23T00:26:23.879Z,102076.59
2023-01-23T00:28:51.580Z,102081.79
2023-01-23T00:31:25.744Z,102078.96
2023-01-23T00:33:58.291Z,102078.89
2023-01-23T00:36:30.321Z,102081.90
2023-01-23T00:38:57.983Z,102083.45
2023-01-23T00:41:25.639Z,102084.46
2023-01-23T00:43:54.355Z,102088.63
2023-01-23T00:46:22.119Z,102086.45
2023-01-23T00:48:50.045Z,102085.61
2023-01-23T00:51:19.439Z,102089.31
2023-01-23T00:53:47.327Z,102093.01
2023-01-23T00:56:15.174Z,102093.36
2023-01-23T00:58:45.030Z,102088.59
2023-01-23T01:01:14.935Z,102090.36
2023-01-23T01:03:42.886Z,102089.97
2023-01-23T01:06:10.757Z,102090.80
2023-01-23T01:08:38.681Z,102090.73
2023-01-23T01:11:06.350Z,102088.52
2023-01-23T01:13:33.962Z,102089.00
2023-01-23T01:16:02.512Z,102086.65
2023-01-23T01:18:30.258Z,102084.10
2023-01-23T01:20:58.191Z,102089.05
2023-01-23T01:23:26.358Z,102088.73
2023-01-23T01:25:53.918Z,102088.39
2023-01-23T01:28:21.799Z,102085.64
2023-01-23T01:30:49.423Z,102085.39
2023-01-23T01:33:16.920Z,102085.43
2023-01-23T01:35:45.080Z,102087.16
2023-01-23T01:38:13.061Z,102086.83
2023-01-23T01:40:40.620Z,102086.26
2023-01-23T01:43:16.410Z,102082.25
2023-01-23T01:46:11.692Z,102083.05
2023-01-23T01:49:02.515Z,102076.88
2023-01-23T01:51:34.590Z,102077.48
2023-01-23T01:54:23.196Z,102075.44
2023-01-23T01:57:14.600Z,102074.16
2023-01-23T01:59:48.583Z,102070.73
2023-01-23T02:02:26.219Z,102069.75
2023-01-23T02:05:06.756Z,102074.63
2023-01-23T02:07:35.262Z,102071.36
2023-01-23T02:10:04.443Z,102067.54
2023-01-23T02:12:32.367Z,102062.63
2023-01-23T02:14:59.808Z,102066.29
2023-01-23T03:58:12.126Z,102104.16
2023-01-23T04:19:21.420Z,102107.39
2023-01-23T04:21:49.538Z,102106.11
2023-01-23T04:24:17.255Z,102108.07
2023-01-23T04:26:44.784Z,102105.01
2023-01-23T04:29:12.759Z,102107.46
2023-01-23T04:31:41.504Z,102112.75
2023-01-23T04:34:12.745Z,102117.40
2023-01-23T04:36:41.061Z,102118.85
2023-01-23T04:39:08.891Z,102117.83
2023-01-23T04:41:37.276Z,102118.46
2023-01-23T04:44:22.556Z,102122.38
2023-01-23T04:47:01.302Z,102126.52
2023-01-23T04:49:30.468Z,102124.60
2023-01-23T04:51:59.111Z,102122.58
2023-01-23T04:54:26.596Z,102118.77
2023-01-23T04:56:54.428Z,102124.17
2023-01-23T04:59:22.699Z,102125.05
2023-01-23T05:01:51.220Z,102123.70
2023-01-23T05:04:22.527Z,102128.02
2023-01-23T05:06:51.036Z,102125.56
2023-01-23T05:09:18.660Z,102125.66
2023-01-23T05:11:51.189Z,102126.83
2023-01-23T05:14:19.207Z,102132.58
2023-01-23T05:16:47.961Z,102138.17
2023-01-23T05:19:15.737Z,102144.11
2023-01-23T05:21:43.919Z,102148.40
2023-01-23T05:24:15.431Z,102151.98
2023-01-23T05:26:43.566Z,102150.58
2023-01-23T05:29:11.076Z,102154.48
2023-01-23T05:31:46.022Z,102160.38
2023-01-23T05:34:32.400Z,102160.03
2023-01-23T05:37:02.018Z,102160.20
2023-01-23T05:39:32.380Z,102158.52
2023-01-23T05:41:59.978Z,102158.95
2023-01-23T05:44:28.246Z,102161.29
2023-01-23T05:47:04.249Z,102162.44
2023-01-23T05:49:32.279Z,102161.45
2023-01-23T05:51:59.763Z,102165.86
2023-01-23T05:54:29.645Z,102163.48
2023-01-23T05:56:57.052Z,102170.36
2023-01-23T05:59:44.189Z,102167.48
2023-01-23T06:02:42.601Z,102167.11
2023-01-23T06:05:33.052Z,102174.29
2023-01-23T06:08:06.784Z,102176.59
2023-01-23T06:10:38.988Z,102174.38
2023-01-23T06:13:06.578Z,102176.30
2023-01-23T06:15:36.505Z,102183.23
2023-01-23T06:18:09.740Z,102183.23
2023-01-23T06:20:37.063Z,102183.14
2023-01-23T06:23:04.486Z,102186.61
2023-01-23T06:25:32.193Z,102189.06
2023-01-23T06:28:01.158Z,102191.80
2023-01-23T06:30:30.110Z,102191.95
2023-01-23T06:32:57.804Z,102189.67
2023-01-23T06:35:32.094Z,102190.54
2023-01-23T06:37:59.409Z,102193.01
2023-01-23T06:40:26.898Z,102194.98
2023-01-23T06:43:14.276Z,102195.20
2023-01-23T06:45:45.540Z,102197.16
2023-01-23T06:48:13.405Z,102200.91
2023-01-23T06:50:42.144Z,102204.26
2023-01-23T06:53:12.287Z,102204.92
2023-01-23T06:55:41.214Z,102206.92
2023-01-23T06:58:08.946Z,102202.25
2023-01-23T07:00:36.421Z,102201.73
2023-01-23T07:03:05.413Z,102201.48
2023-01-23T07:05:36.296Z,102206.88
2023-01-23T07:08:05.146Z,102209.70
2023-01-23T07:10:35.003Z,102211.46
2023-01-23T07:13:02.501Z,102212.59
2023-01-23T07:15:30.371Z,102214.34
2023-01-23T07:17:57.692Z,102215.06
2023-01-23T07:20:28.403Z,102218.02
2023-01-23T07:22:57.913Z,102220.55
2023-01-23T07:25:26.311Z,102221.67
2023-01-23T07:27:53.961Z,102219.04
2023-01-23T07:30:21.914Z,102221.91
2023-01-23T07:32:49.634Z,102227.45
2023-01-23T07:35:17.464Z,102223.79
2023-01-23T07:37:44.976Z,102226.56
2023-01-23T07:40:12.699Z,102228.16
2023-01-23T07:42:41.681Z,102230.34
2023-01-23T07:45:09.825Z,102234.88
2023-01-23T07:47:39.516Z,102235.97
2023-01-23T07:50:09.086Z,102237.05
2023-01-23T07:52:37.650Z,102239.60
2023-01-23T07:55:05.586Z,102243.73
2023-01-23T07:57:33.776Z,102247.70
2023-01-23T08:00:01.783Z,102243.73
2023-01-23T08:02:40.128Z,102246.84
2023-01-23T08:05:09.329Z,102247.41
2023-01-23T08:07:37.973Z,102256.73
2023-01-23T08:10:06.744Z,102253.77
2023-01-23T08:12:34.489Z,102252.56
2023-01-23T08:15:02.988Z,102253.11
2023-01-23T08:17:31.498Z,102253.39
2023-01-23T08:19:58.886Z,102256.73
2023-01-23T08:22:26.207Z,102261.73
2023-01-23T08:24:53.650Z,102264.20
2023-01-23T08:27:21.029Z,102266.10
2023-01-23T08:29:48.347Z,102270.30
2023-01-23T08:32:16.135Z,102270.20
2023-01-23T08:34:43.914Z,102267.84
2023-01-23T08:37:13.396Z,102269.76
2023-01-23T08:39:40.810Z,102267.38
2023-01-23T08:42:08.100Z,102270.40
2023-01-23T08:44:35.496Z,102267.20
2023-01-23T08:47:03.306Z,102264.16
2023-01-23T08:49:31.616Z,102266.67
2023-01-23T08:51:59.738Z,102265.61
2023-01-23T08:54:27.850Z,102263.54
2023-01-23T08:56:55.404Z,102261.87
2023-01-23T08:59:22.744Z,102261.20
2023-01-23T09:01:50.368Z,102259.88
2023-01-23T09:04:18.466Z,102261.92
2023-01-23T09:06:45.943Z,102263.29
2023-01-23T09:09:13.417Z,102264.42
2023-01-23T09:11:41.494Z,102265.13
2023-01-23T09:14:08.857Z,102262.06
2023-01-23T09:16:36.655Z,102263.98
2023-01-23T09:19:04.038Z,102263.15
2023-01-23T09:21:31.730Z,102261.26
2023-01-23T09:23:59.656Z,102264.00
2023-01-23T09:26:26.963Z,102264.01
2023-01-23T09:28:54.439Z,102262.77
2023-01-23T09:31:24.754Z,102266.94
2023-01-23T09:33:52.453Z,102267.48
2023-01-23T09:36:27.472Z,102263.73
2023-01-23T09:39:03.301Z,102257.96
2023-01-23T14:22:58.731Z,102241.64
2023-01-23T14:25:26.725Z,102241.08
2023-01-23T14:28:04.537Z,102241.98
2023-01-23T14:30:32.837Z,102242.39
2023-01-23T14:33:00.274Z,102238.91
2023-01-23T14:35:31.084Z,102234.20
2023-01-23T14:38:04.917Z,102234.41
2023-01-23T14:40:43.510Z,102235.88
2023-01-23T14:43:20.364Z,102244.84
2023-01-23T14:45:52.545Z,102245.02
2023-01-23T14:48:19.959Z,102245.36
2023-01-23T14:50:47.912Z,102245.55
2023-01-23T14:53:16.354Z,102246.77
2023-01-23T14:55:47.249Z,102245.67
2023-01-23T14:58:21.860Z,102241.79
2023-01-23T15:00:49.610Z,102238.96
2023-01-23T15:03:40.348Z,102239.68
2023-01-23T15:06:34.708Z,102243.52
2023-01-23T15:09:15.774Z,102243.92
2023-01-23T15:11:44.370Z,102243.83
2023-01-23T15:14:27.766Z,102245.60
2023-01-23T15:17:00.594Z,102250.27
2023-01-23T15:19:27.998Z,102250.11
2023-01-23T15:22:19.229Z,102254.02
2023-01-23T15:24:47.326Z,102253.37
2023-01-23T15:27:34.431Z,102255.48
2023-01-23T15:30:33.359Z,102256.00
2023-01-23T15:33:07.100Z,102262.60
2023-01-23T15:35:35.232Z,102266.53
2023-01-23T15:38:04.751Z,102264.27
2023-01-23T15:40:37.945Z,102264.55
2023-01-23T15:43:10.976Z,102269.45
2023-01-23T15:45:38.265Z,102268.27
2023-01-23T15:48:06.191Z,102269.11
2023-01-23T15:50:33.568Z,102268.41
2023-01-23T15:53:00.857Z,102269.91
2023-01-23T15:55:28.546Z,102272.67
2023-01-23T15:57:56.024Z,102272.94
2023-01-23T16:00:27.479Z,102272.89
2023-01-23T16:02:58.211Z,102275.07
2023-01-23T16:05:28.218Z,102275.07
2023-01-23T16:07:56.057Z,102273.21
2023-01-23T16:10:41.809Z,102272.94
2023-01-23T16:13:09.913Z,102268.66
2023-01-23T16:15:40.216Z,102273.06
2023-01-23T16:18:08.295Z,102269.88
2023-01-23T16:20:41.638Z,102268.99
2023-01-23T16:23:17.246Z,102269.18
2023-01-23T16:25:46.382Z,102267.76
2023-01-23T16:28:15.393Z,102268.95
2023-01-23T16:30:43.186Z,102269.48
2023-01-23T16:33:10.684Z,102267.86
2023-01-23T16:35:38.164Z,102268.16
2023-01-23T16:38:05.673Z,102269.04
2023-01-23T16:40:34.563Z,102274.58
2023-01-23T16:43:02.688Z,102276.30
2023-01-23T16:45:31.330Z,102273.46
2023-01-23T16:47:58.729Z,102278.17
2023-01-23T16:50:36.520Z,102282.45
2023-01-23T16:53:09.332Z,102282.12
2023-01-23T16:55:38.997Z,102279.64
2023-01-23T16:58:07.345Z,102279.25
2023-01-23T17:00:35.631Z,102278.48
2023-01-23T17:03:07.016Z,102280.34
2023-01-23T17:05:35.155Z,102284.05
2023-01-23T17:08:23.376Z,102280.83
2023-01-23T17:10:55.518Z,102284.73
2023-01-23T17:13:22.994Z,102282.62
2023-01-23T17:15:53.163Z,102287.08
2023-01-23T17:18:23.079Z,102285.64
2023-01-23T17:20:51.168Z,102289.70
2023-01-23T17:23:18.572Z,102285.66
2023-01-23T17:25:59.384Z,102289.90
2023-01-23T17:28:28.132Z,102292.92
2023-01-23T17:30:55.932Z,102295.79
2023-01-23T17:33:30.078Z,102300.45
2023-01-23T17:35:57.470Z,102301.60
2023-01-23T17:38:26.394Z,102301.08
2023-01-23T17:40:54.048Z,102300.31
2023-01-23T17:43:21.604Z,102299.77
2023-01-23T17:45:50.022Z,102300.27
2023-01-23T17:48:23.827Z,102292.59
2023-01-23T22:02:59.273Z,102267.55
2023-01-23T22:10:29.895Z,102263.45
2023-01-23T22:16:35.842Z,102262.32
2023-01-23T22:19:18.428Z,102263.34
2023-01-23T22:21:46.097Z,102268.35
2023-01-23T22:24:14.454Z,102265.94
2023-01-23T22:26:42.684Z,102266.20
2023-01-23T22:29:12.219Z,102270.54
2023-01-23T22:31:39.817Z,102272.61
2023-01-23T22:34:07.433Z,102266.08
2023-01-23T22:36:35.182Z,102263.26
2023-01-23T22:39:03.203Z,102264.28
2023-01-23T22:41:30.801Z,102266.02
2023-01-23T22:44:01.186Z,102264.98
2023-01-23T22:46:29.117Z,102260.34
2023-01-23T22:48:56.616Z,102257.79
2023-01-23T22:51:25.206Z,102258.41
2023-01-23T22:53:53.355Z,102261.42
2023-01-23T22:56:20.978Z,102261.00
2023-01-23T22:58:49.253Z,102258.07
2023-01-23T23:01:16.994Z,102263.10
2023-01-23T23:03:44.802Z,102269.16
2023-01-23T23:06:13.866Z,102265.31
2023-01-23T23:08:41.614Z,102270.06
2023-01-23T23:11:11.111Z,102265.70
2023-01-23T23:13:39.359Z,102270.04
2023-01-23T23:16:17.387Z,102270.42
2023-01-23T23:18:45.711Z,102269.59
2023-01-23T23:21:14.902Z,102273.23
2023-01-23T23:23:42.509Z,102269.27
2023-01-23T23:26:10.794Z,102269.58
2023-01-23T23:28:38.663Z,102266.65
2023-01-23T23:31:06.969Z,102269.81
2023-01-23T23:33:34.765Z,102274.03
2023-01-23T23:36:02.121Z,102275.56
2023-01-23T23:38:29.727Z,102279.20
2023-01-23T23:41:04.914Z,102274.77
2023-01-23T23:43:32.550Z,102270.46
2023-01-23T23:46:02.413Z,102268.58
2023-01-23T23:48:30.279Z,102268.38
